world map with HPH marked

HPH - Airport

This information may not be accurate or current and is not valid for navigation or flight planning. No warranty of fitness for any purpose is made or implied.

flag of Vietnam

Donate via PayPal

Additional information is available on the NEW Great Circle Mapper

Location
City:  Hai Phong, Vietnam
Near (Alt.):Haiphong
Name:Cat Bi International Airport
ICAO / IATA:VVCI / HPH

Details
Type:Airport (Aerodrome, Airfield)
Latitude:20°49'10"N (20.819386)
Longitude:106°43'30"E (106.724989)
Datum:WGS 1984
Elevation:6 ft (2 m)
Runways:1
Longest:7880 × 164 ft (2402 × 50 m)

Time
Timezone:UTC+7 (DST+9)
Local Time:

Weather
METAR:VVCI  160600Z 33006KT 9999 OVC024 16/13 Q1020 NOSIG
TAF:VVCI  160500Z 1606/1706 02008KT 6000 FEW020 BKN035= TAF VVCR 160500Z 1606/1706 05013KT 9999 FEW017

Related Locations
Nearby:
Farthest:IQQ: 12247 mi / 19709 km
Iquique [Diego Aracena Intl], TA, CL

Find:

   beyond  
but within

Other Information
Maps:
Sources:

  


 


Great Circle Mapper   Great Circle Mapper
Great Circle Mapper FAQ   Great Circle Mapper FAQ
  Karl's Home Page
KLSē   KLSē Home
   GC on Facebook
Airlines of the World   Airlines of the World
Donate via PayPal


Copyright © 2004-2019, Karl L. Swartz. All rights reserved.
All trademarks mentioned herein belong to their respective owners.

Please see credits for attribution and copyright information.

Karl Swartz <karl@kls2.com>
  Powered by FreeBSD
Valid HTML 4.01!
Labeled with ICRA
hCard Microformat
Geo Microformat